sensor_id;sensor_type;location;lat;lon;timestamp;P1;durP1;ratioP1;P2;durP2;ratioP2
22939;SDS011;11636;52.086;5.090;2023-02-28T00:00:30;5.50;;;2.70;;
22939;SDS011;11636;52.086;5.090;2023-02-28T00:03:04;5.53;;;2.95;;
22939;SDS011;11636;52.086;5.090;2023-02-28T00:05:31;4.78;;;2.55;;
22939;SDS011;11636;52.086;5.090;2023-02-28T00:07:59;4.90;;;2.38;;
22939;SDS011;11636;52.086;5.090;2023-02-28T00:10:33;4.40;;;2.40;;
22939;SDS011;11636;52.086;5.090;2023-02-28T00:13:07;4.72;;;2.40;;
22939;SDS011;11636;52.086;5.090;2023-02-28T00:15:34;6.15;;;2.40;;
22939;SDS011;11636;52.086;5.090;2023-02-28T00:18:07;4.88;;;2.22;;
22939;SDS011;11636;52.086;5.090;2023-02-28T00:20:33;3.40;;;1.90;;
22939;SDS011;11636;52.086;5.090;2023-02-28T00:23:11;3.08;;;1.63;;
22939;SDS011;11636;52.086;5.090;2023-02-28T00:25:45;4.18;;;1.90;;
22939;SDS011;11636;52.086;5.090;2023-02-28T00:28:19;3.28;;;1.80;;
22939;SDS011;11636;52.086;5.090;2023-02-28T00:30:46;5.65;;;1.88;;
22939;SDS011;11636;52.086;5.090;2023-02-28T00:33:20;5.85;;;2.17;;
22939;SDS011;11636;52.086;5.090;2023-02-28T00:35:47;5.05;;;2.20;;
22939;SDS011;11636;52.086;5.090;2023-02-28T00:38:21;4.13;;;2.30;;
22939;SDS011;11636;52.086;5.090;2023-02-28T00:40:48;4.65;;;2.08;;
22939;SDS011;11636;52.086;5.090;2023-02-28T00:43:15;5.45;;;2.30;;
22939;SDS011;11636;52.086;5.090;2023-02-28T00:45:48;5.68;;;1.88;;
22939;SDS011;11636;52.086;5.090;2023-02-28T00:48:22;7.20;;;2.28;;
22939;SDS011;11636;52.086;5.090;2023-02-28T00:50:55;5.80;;;2.35;;
22939;SDS011;11636;52.086;5.090;2023-02-28T00:53:22;4.15;;;2.00;;
22939;SDS011;11636;52.086;5.090;2023-02-28T00:55:55;4.85;;;2.10;;
22939;SDS011;11636;52.086;5.090;2023-02-28T00:58:28;3.80;;;1.75;;
22939;SDS011;11636;52.086;5.090;2023-02-28T01:01:02;3.92;;;1.67;;
22939;SDS011;11636;52.086;5.090;2023-02-28T01:03:29;3.90;;;1.67;;
22939;SDS011;11636;52.086;5.090;2023-02-28T01:06:02;3.60;;;1.77;;
22939;SDS011;11636;52.086;5.090;2023-02-28T01:08:29;3.58;;;1.70;;
22939;SDS011;11636;52.086;5.090;2023-02-28T01:11:12;3.33;;;1.40;;
22939;SDS011;11636;52.086;5.090;2023-02-28T01:13:47;3.70;;;1.63;;
22939;SDS011;11636;52.086;5.090;2023-02-28T01:16:21;4.43;;;1.88;;
22939;SDS011;11636;52.086;5.090;2023-02-28T01:18:55;4.40;;;1.90;;
22939;SDS011;11636;52.086;5.090;2023-02-28T01:21:22;3.70;;;1.75;;
22939;SDS011;11636;52.086;5.090;2023-02-28T01:23:57;4.45;;;2.05;;
22939;SDS011;11636;52.086;5.090;2023-02-28T01:26:24;4.60;;;2.08;;
22939;SDS011;11636;52.086;5.090;2023-02-28T01:28:58;3.60;;;1.85;;
22939;SDS011;11636;52.086;5.090;2023-02-28T01:31:25;4.38;;;1.85;;
22939;SDS011;11636;52.086;5.090;2023-02-28T01:33:58;3.65;;;2.10;;
22939;SDS011;11636;52.086;5.090;2023-02-28T01:36:25;3.55;;;1.58;;
22939;SDS011;11636;52.086;5.090;2023-02-28T01:38:52;3.65;;;1.85;;
22939;SDS011;11636;52.086;5.090;2023-02-28T01:41:27;4.57;;;2.20;;
22939;SDS011;11636;52.086;5.090;2023-02-28T01:44:06;3.85;;;1.80;;
22939;SDS011;11636;52.086;5.090;2023-02-28T01:47:03;3.85;;;1.83;;
22939;SDS011;11636;52.086;5.090;2023-02-28T01:49:30;4.47;;;2.10;;
22939;SDS011;11636;52.086;5.090;2023-02-28T01:52:04;5.70;;;2.13;;
22939;SDS011;11636;52.086;5.090;2023-02-28T01:54:31;3.70;;;2.00;;
22939;SDS011;11636;52.086;5.090;2023-02-28T01:57:09;3.60;;;1.95;;
22939;SDS011;11636;52.086;5.090;2023-02-28T01:59:42;3.50;;;1.75;;
22939;SDS011;11636;52.086;5.090;2023-02-28T02:02:21;3.85;;;2.05;;
22939;SDS011;11636;52.086;5.090;2023-02-28T02:04:57;3.88;;;2.03;;
22939;SDS011;11636;52.086;5.090;2023-02-28T02:07:39;3.23;;;1.67;;
22939;SDS011;11636;52.086;5.090;2023-02-28T02:10:20;3.67;;;2.00;;
22939;SDS011;11636;52.086;5.090;2023-02-28T02:34:04;4.63;;;2.15;;
22939;SDS011;11636;52.086;5.090;2023-02-28T02:42:14;5.20;;;2.00;;
22939;SDS011;11636;52.086;5.090;2023-02-28T02:44:49;4.00;;;1.80;;
22939;SDS011;11636;52.086;5.090;2023-02-28T02:47:33;4.47;;;1.67;;
22939;SDS011;11636;52.086;5.090;2023-02-28T02:50:04;4.15;;;2.00;;
22939;SDS011;11636;52.086;5.090;2023-02-28T02:52:42;3.13;;;1.52;;
22939;SDS011;11636;52.086;5.090;2023-02-28T02:55:13;3.67;;;1.75;;
22939;SDS011;11636;52.086;5.090;2023-02-28T02:57:59;4.75;;;1.80;;
22939;SDS011;11636;52.086;5.090;2023-02-28T03:00:42;3.83;;;1.90;;
22939;SDS011;11636;52.086;5.090;2023-02-28T03:03:16;3.42;;;1.70;;
22939;SDS011;11636;52.086;5.090;2023-02-28T03:05:54;3.30;;;1.88;;
22939;SDS011;11636;52.086;5.090;2023-02-28T03:08:36;3.97;;;2.00;;
22939;SDS011;11636;52.086;5.090;2023-02-28T03:11:05;4.53;;;2.05;;
22939;SDS011;11636;52.086;5.090;2023-02-28T03:16:59;3.88;;;1.98;;
22939;SDS011;11636;52.086;5.090;2023-02-28T03:28:06;3.80;;;1.92;;
22939;SDS011;11636;52.086;5.090;2023-02-28T03:33:21;4.07;;;2.00;;
22939;SDS011;11636;52.086;5.090;2023-02-28T03:35:59;4.35;;;2.03;;
22939;SDS011;11636;52.086;5.090;2023-02-28T03:38:38;3.88;;;1.90;;
22939;SDS011;11636;52.086;5.090;2023-02-28T03:41:56;3.10;;;1.83;;
22939;SDS011;11636;52.086;5.090;2023-02-28T03:44:24;4.25;;;2.13;;
22939;SDS011;11636;52.086;5.090;2023-02-28T03:47:18;4.15;;;2.28;;
22939;SDS011;11636;52.086;5.090;2023-02-28T03:50:12;4.03;;;2.00;;
22939;SDS011;11636;52.086;5.090;2023-02-28T03:52:56;4.43;;;2.00;;
22939;SDS011;11636;52.086;5.090;2023-02-28T03:55:32;3.17;;;1.70;;
22939;SDS011;11636;52.086;5.090;2023-02-28T03:58:17;6.35;;;2.15;;
22939;SDS011;11636;52.086;5.090;2023-02-28T04:01:09;4.97;;;2.17;;
22939;SDS011;11636;52.086;5.090;2023-02-28T04:03:44;4.18;;;2.33;;
22939;SDS011;11636;52.086;5.090;2023-02-28T04:06:18;3.95;;;2.20;;
22939;SDS011;11636;52.086;5.090;2023-02-28T04:08:54;3.80;;;2.20;;
22939;SDS011;11636;52.086;5.090;2023-02-28T04:11:34;4.40;;;2.33;;
22939;SDS011;11636;52.086;5.090;2023-02-28T04:14:12;3.47;;;2.10;;
22939;SDS011;11636;52.086;5.090;2023-02-28T04:16:40;4.65;;;2.22;;
22939;SDS011;11636;52.086;5.090;2023-02-28T04:19:14;5.03;;;2.40;;
22939;SDS011;11636;52.086;5.090;2023-02-28T04:21:48;5.40;;;2.35;;
22939;SDS011;11636;52.086;5.090;2023-02-28T04:24:24;4.00;;;2.17;;
22939;SDS011;11636;52.086;5.090;2023-02-28T04:26:53;3.67;;;2.17;;
22939;SDS011;11636;52.086;5.090;2023-02-28T04:29:29;4.88;;;2.72;;
22939;SDS011;11636;52.086;5.090;2023-02-28T04:32:00;6.35;;;2.75;;
22939;SDS011;11636;52.086;5.090;2023-02-28T04:34:34;4.88;;;3.10;;
22939;SDS011;11636;52.086;5.090;2023-02-28T04:37:08;5.25;;;2.80;;
22939;SDS011;11636;52.086;5.090;2023-02-28T04:39:39;4.90;;;2.53;;
22939;SDS011;11636;52.086;5.090;2023-02-28T04:42:13;5.47;;;2.92;;
22939;SDS011;11636;52.086;5.090;2023-02-28T04:44:41;5.43;;;3.13;;
22939;SDS011;11636;52.086;5.090;2023-02-28T04:47:17;4.22;;;2.55;;
22939;SDS011;11636;52.086;5.090;2023-02-28T04:49:44;4.40;;;2.22;;
22939;SDS011;11636;52.086;5.090;2023-02-28T04:52:17;4.07;;;2.58;;
22939;SDS011;11636;52.086;5.090;2023-02-28T04:54:51;4.00;;;2.40;;
22939;SDS011;11636;52.086;5.090;2023-02-28T04:57:24;3.80;;;2.53;;
22939;SDS011;11636;52.086;5.090;2023-02-28T04:59:51;4.13;;;2.50;;
22939;SDS011;11636;52.086;5.090;2023-02-28T05:02:24;4.40;;;2.55;;
22939;SDS011;11636;52.086;5.090;2023-02-28T05:04:57;5.13;;;2.70;;
22939;SDS011;11636;52.086;5.090;2023-02-28T05:07:24;4.05;;;2.42;;
22939;SDS011;11636;52.086;5.090;2023-02-28T05:09:57;4.00;;;2.33;;
22939;SDS011;11636;52.086;5.090;2023-02-28T05:12:24;4.00;;;2.25;;
22939;SDS011;11636;52.086;5.090;2023-02-28T05:14:57;5.20;;;2.20;;
22939;SDS011;11636;52.086;5.090;2023-02-28T05:17:24;3.65;;;2.10;;
22939;SDS011;11636;52.086;5.090;2023-02-28T05:19:57;4.28;;;2.25;;
22939;SDS011;11636;52.086;5.090;2023-02-28T05:22:40;4.50;;;2.20;;
22939;SDS011;11636;52.086;5.090;2023-02-28T05:25:12;3.88;;;1.95;;
22939;SDS011;11636;52.086;5.090;2023-02-28T05:27:48;4.07;;;2.00;;
22939;SDS011;11636;52.086;5.090;2023-02-28T05:30:21;3.00;;;1.80;;
22939;SDS011;11636;52.086;5.090;2023-02-28T05:32:49;2.88;;;1.73;;
22939;SDS011;11636;52.086;5.090;2023-02-28T05:35:23;3.33;;;1.90;;
22939;SDS011;11636;52.086;5.090;2023-02-28T05:37:51;3.60;;;2.00;;
22939;SDS011;11636;52.086;5.090;2023-02-28T05:40:24;3.65;;;2.00;;
22939;SDS011;11636;52.086;5.090;2023-02-28T05:42:51;3.80;;;1.85;;
22939;SDS011;11636;52.086;5.090;2023-02-28T05:45:24;3.30;;;1.80;;
22939;SDS011;11636;52.086;5.090;2023-02-28T05:47:54;3.63;;;2.10;;
22939;SDS011;11636;52.086;5.090;2023-02-28T05:50:28;4.85;;;2.30;;
22939;SDS011;11636;52.086;5.090;2023-02-28T05:52:58;4.45;;;2.60;;
22939;SDS011;11636;52.086;5.090;2023-02-28T05:55:31;5.43;;;2.50;;
22939;SDS011;11636;52.086;5.090;2023-02-28T05:58:04;3.30;;;1.80;;
22939;SDS011;11636;52.086;5.090;2023-02-28T06:00:31;3.45;;;1.88;;
22939;SDS011;11636;52.086;5.090;2023-02-28T06:02:58;3.35;;;1.95;;
22939;SDS011;11636;52.086;5.090;2023-02-28T06:05:34;3.80;;;2.20;;
22939;SDS011;11636;52.086;5.090;2023-02-28T06:08:01;5.20;;;2.30;;
22939;SDS011;11636;52.086;5.090;2023-02-28T06:10:28;4.28;;;2.35;;
22939;SDS011;11636;52.086;5.090;2023-02-28T06:13:05;4.63;;;2.33;;
22939;SDS011;11636;52.086;5.090;2023-02-28T06:15:32;3.95;;;2.33;;
22939;SDS011;11636;52.086;5.090;2023-02-28T06:18:05;4.18;;;2.13;;
22939;SDS011;11636;52.086;5.090;2023-02-28T06:20:32;4.97;;;2.60;;
22939;SDS011;11636;52.086;5.090;2023-02-28T06:23:06;3.97;;;2.10;;
22939;SDS011;11636;52.086;5.090;2023-02-28T06:25:33;3.45;;;2.10;;
22939;SDS011;11636;52.086;5.090;2023-02-28T06:28:06;3.35;;;2.30;;
22939;SDS011;11636;52.086;5.090;2023-02-28T06:30:33;3.83;;;2.42;;
22939;SDS011;11636;52.086;5.090;2023-02-28T06:33:06;4.03;;;2.50;;
22939;SDS011;11636;52.086;5.090;2023-02-28T06:35:33;3.83;;;2.38;;
22939;SDS011;11636;52.086;5.090;2023-02-28T06:38:01;5.47;;;2.90;;
22939;SDS011;11636;52.086;5.090;2023-02-28T06:40:34;5.47;;;2.92;;
22939;SDS011;11636;52.086;5.090;2023-02-28T06:43:02;4.70;;;3.05;;
22939;SDS011;11636;52.086;5.090;2023-02-28T06:45:35;3.22;;;2.30;;
22939;SDS011;11636;52.086;5.090;2023-02-28T06:48:02;5.68;;;2.97;;
22939;SDS011;11636;52.086;5.090;2023-02-28T06:50:36;5.22;;;3.08;;
22939;SDS011;11636;52.086;5.090;2023-02-28T06:53:03;4.15;;;2.70;;
22939;SDS011;11636;52.086;5.090;2023-02-28T06:55:30;4.57;;;2.80;;
22939;SDS011;11636;52.086;5.090;2023-02-28T06:58:04;4.43;;;2.97;;
22939;SDS011;11636;52.086;5.090;2023-02-28T07:00:41;5.47;;;2.97;;
22939;SDS011;11636;52.086;5.090;2023-02-28T07:03:14;4.30;;;2.60;;
22939;SDS011;11636;52.086;5.090;2023-02-28T07:05:41;4.82;;;2.88;;
22939;SDS011;11636;52.086;5.090;2023-02-28T07:08:15;4.75;;;2.92;;
22939;SDS011;11636;52.086;5.090;2023-02-28T07:10:41;5.32;;;3.30;;
22939;SDS011;11636;52.086;5.090;2023-02-28T07:13:14;4.90;;;3.47;;
22939;SDS011;11636;52.086;5.090;2023-02-28T07:15:41;4.82;;;3.33;;
22939;SDS011;11636;52.086;5.090;2023-02-28T07:18:14;5.63;;;3.70;;
22939;SDS011;11636;52.086;5.090;2023-02-28T07:20:41;7.95;;;4.85;;
22939;SDS011;11636;52.086;5.090;2023-02-28T07:23:14;8.30;;;4.63;;
22939;SDS011;11636;52.086;5.090;2023-02-28T07:25:42;7.78;;;5.22;;
22939;SDS011;11636;52.086;5.090;2023-02-28T07:28:20;7.72;;;5.22;;
22939;SDS011;11636;52.086;5.090;2023-02-28T07:30:47;9.35;;;5.40;;
22939;SDS011;11636;52.086;5.090;2023-02-28T07:33:20;7.03;;;4.55;;
22939;SDS011;11636;52.086;5.090;2023-02-28T07:35:47;7.20;;;4.90;;
22939;SDS011;11636;52.086;5.090;2023-02-28T07:38:20;9.20;;;5.60;;
22939;SDS011;11636;52.086;5.090;2023-02-28T07:40:47;8.25;;;5.00;;
22939;SDS011;11636;52.086;5.090;2023-02-28T07:43:20;6.22;;;4.38;;
22939;SDS011;11636;52.086;5.090;2023-02-28T07:45:53;6.60;;;4.97;;
22939;SDS011;11636;52.086;5.090;2023-02-28T07:48:22;8.32;;;5.50;;
22939;SDS011;11636;52.086;5.090;2023-02-28T07:50:56;8.95;;;5.40;;
22939;SDS011;11636;52.086;5.090;2023-02-28T07:53:25;10.90;;;5.80;;
22939;SDS011;11636;52.086;5.090;2023-02-28T07:56:00;9.15;;;5.28;;
22939;SDS011;11636;52.086;5.090;2023-02-28T07:58:28;8.27;;;5.20;;
22939;SDS011;11636;52.086;5.090;2023-02-28T08:01:06;9.07;;;5.30;;
22939;SDS011;11636;52.086;5.090;2023-02-28T08:03:40;6.93;;;4.88;;
22939;SDS011;11636;52.086;5.090;2023-02-28T08:06:18;6.90;;;4.50;;
22939;SDS011;11636;52.086;5.090;2023-02-28T08:08:53;7.50;;;5.15;;
22939;SDS011;11636;52.086;5.090;2023-02-28T08:11:29;8.07;;;5.05;;
22939;SDS011;11636;52.086;5.090;2023-02-28T08:14:02;6.75;;;4.80;;
22939;SDS011;11636;52.086;5.090;2023-02-28T08:16:28;6.00;;;4.43;;
22939;SDS011;11636;52.086;5.090;2023-02-28T08:19:02;6.68;;;4.40;;
22939;SDS011;11636;52.086;5.090;2023-02-28T08:21:29;8.50;;;4.80;;
22939;SDS011;11636;52.086;5.090;2023-02-28T08:24:01;7.28;;;4.15;;
22939;SDS011;11636;52.086;5.090;2023-02-28T08:26:28;6.22;;;3.80;;
22939;SDS011;11636;52.086;5.090;2023-02-28T08:29:02;5.88;;;3.72;;
22939;SDS011;11636;52.086;5.090;2023-02-28T08:31:35;6.45;;;3.90;;
22939;SDS011;11636;52.086;5.090;2023-02-28T08:34:09;5.47;;;3.60;;
22939;SDS011;11636;52.086;5.090;2023-02-28T08:36:44;4.78;;;3.40;;
22939;SDS011;11636;52.086;5.090;2023-02-28T08:39:12;4.57;;;3.50;;
22939;SDS011;11636;52.086;5.090;2023-02-28T08:41:46;4.72;;;3.00;;
22939;SDS011;11636;52.086;5.090;2023-02-28T08:44:18;4.35;;;3.00;;
22939;SDS011;11636;52.086;5.090;2023-02-28T08:46:52;4.88;;;3.17;;
22939;SDS011;11636;52.086;5.090;2023-02-28T08:49:18;4.35;;;2.80;;
22939;SDS011;11636;52.086;5.090;2023-02-28T08:51:52;5.93;;;3.50;;
22939;SDS011;11636;52.086;5.090;2023-02-28T08:54:18;4.57;;;2.88;;
22939;SDS011;11636;52.086;5.090;2023-02-28T08:56:52;3.60;;;2.38;;
22939;SDS011;11636;52.086;5.090;2023-02-28T08:59:18;3.92;;;2.40;;
22939;SDS011;11636;52.086;5.090;2023-02-28T09:01:52;3.65;;;2.33;;
22939;SDS011;11636;52.086;5.090;2023-02-28T09:04:18;3.50;;;2.05;;
22939;SDS011;11636;52.086;5.090;2023-02-28T09:06:52;4.20;;;2.33;;
22939;SDS011;11636;52.086;5.090;2023-02-28T09:09:19;3.60;;;2.15;;
22939;SDS011;11636;52.086;5.090;2023-02-28T09:11:52;3.38;;;2.00;;
22939;SDS011;11636;52.086;5.090;2023-02-28T09:14:21;2.40;;;1.75;;
22939;SDS011;11636;52.086;5.090;2023-02-28T09:16:58;3.28;;;1.63;;
22939;SDS011;11636;52.086;5.090;2023-02-28T09:19:25;2.90;;;1.90;;
22939;SDS011;11636;52.086;5.090;2023-02-28T09:21:59;2.88;;;1.80;;
22939;SDS011;11636;52.086;5.090;2023-02-28T09:24:25;3.25;;;1.95;;
22939;SDS011;11636;52.086;5.090;2023-02-28T09:26:59;2.95;;;1.77;;
22939;SDS011;11636;52.086;5.090;2023-02-28T09:29:34;3.40;;;2.17;;
22939;SDS011;11636;52.086;5.090;2023-02-28T09:32:01;3.03;;;1.85;;
22939;SDS011;11636;52.086;5.090;2023-02-28T09:34:35;3.25;;;1.70;;
22939;SDS011;11636;52.086;5.090;2023-02-28T09:37:09;2.80;;;1.55;;
22939;SDS011;11636;52.086;5.090;2023-02-28T09:39:36;3.97;;;2.05;;
22939;SDS011;11636;52.086;5.090;2023-02-28T09:42:13;4.20;;;2.20;;
22939;SDS011;11636;52.086;5.090;2023-02-28T09:44:47;3.55;;;2.00;;
22939;SDS011;11636;52.086;5.090;2023-02-28T09:47:30;3.08;;;1.70;;
22939;SDS011;11636;52.086;5.090;2023-02-28T09:50:01;2.90;;;1.80;;
22939;SDS011;11636;52.086;5.090;2023-02-28T09:52:50;3.75;;;2.03;;
22939;SDS011;11636;52.086;5.090;2023-02-28T09:55:28;3.20;;;1.77;;
22939;SDS011;11636;52.086;5.090;2023-02-28T09:58:18;2.13;;;1.30;;
22939;SDS011;11636;52.086;5.090;2023-02-28T10:07:10;3.30;;;1.40;;
22939;SDS011;11636;52.086;5.090;2023-02-28T10:09:55;2.92;;;1.48;;
22939;SDS011;11636;52.086;5.090;2023-02-28T10:12:31;2.17;;;1.30;;
22939;SDS011;11636;52.086;5.090;2023-02-28T10:15:09;2.50;;;1.30;;
22939;SDS011;11636;52.086;5.090;2023-02-28T10:17:42;2.80;;;1.20;;
22939;SDS011;11636;52.086;5.090;2023-02-28T10:20:35;2.63;;;1.13;;
22939;SDS011;11636;52.086;5.090;2023-02-28T10:23:24;2.20;;;1.10;;
22939;SDS011;11636;52.086;5.090;2023-02-28T10:26:09;2.15;;;1.10;;
22939;SDS011;11636;52.086;5.090;2023-02-28T10:28:39;2.40;;;1.30;;
22939;SDS011;11636;52.086;5.090;2023-02-28T10:31:18;2.17;;;1.13;;
22939;SDS011;11636;52.086;5.090;2023-02-28T10:33:53;2.10;;;1.10;;
22939;SDS011;11636;52.086;5.090;2023-02-28T10:36:20;2.40;;;1.30;;
22939;SDS011;11636;52.086;5.090;2023-02-28T10:38:54;2.20;;;0.95;;
22939;SDS011;11636;52.086;5.090;2023-02-28T10:44:19;2.63;;;1.38;;
22939;SDS011;11636;52.086;5.090;2023-02-28T10:46:54;3.22;;;1.25;;
22939;SDS011;11636;52.086;5.090;2023-02-28T10:49:29;2.45;;;1.20;;
22939;SDS011;11636;52.086;5.090;2023-02-28T10:52:04;4.57;;;1.30;;
22939;SDS011;11636;52.086;5.090;2023-02-28T10:54:42;2.83;;;1.20;;
22939;SDS011;11636;52.086;5.090;2023-02-28T10:57:20;3.10;;;1.42;;
22939;SDS011;11636;52.086;5.090;2023-02-28T11:00:06;2.42;;;1.10;;
22939;SDS011;11636;52.086;5.090;2023-02-28T11:02:39;2.65;;;1.27;;
22939;SDS011;11636;52.086;5.090;2023-02-28T11:08:12;2.50;;;1.00;;
22939;SDS011;11636;52.086;5.090;2023-02-28T11:10:56;2.58;;;1.20;;
22939;SDS011;11636;52.086;5.090;2023-02-28T11:13:27;2.50;;;1.23;;
22939;SDS011;11636;52.086;5.090;2023-02-28T11:16:05;2.55;;;1.08;;
22939;SDS011;11636;52.086;5.090;2023-02-28T11:26:54;2.30;;;1.02;;
22939;SDS011;11636;52.086;5.090;2023-02-28T11:29:29;1.77;;;0.95;;
22939;SDS011;11636;52.086;5.090;2023-02-28T11:34:41;4.10;;;1.90;;
22939;SDS011;11636;52.086;5.090;2023-02-28T11:37:11;2.83;;;1.38;;
22939;SDS011;11636;52.086;5.090;2023-02-28T11:39:49;2.58;;;1.33;;
22939;SDS011;11636;52.086;5.090;2023-02-28T11:42:39;2.72;;;1.42;;
22939;SDS011;11636;52.086;5.090;2023-02-28T11:56:47;3.20;;;1.23;;
22939;SDS011;11636;52.086;5.090;2023-02-28T12:07:29;3.60;;;1.20;;
22939;SDS011;11636;52.086;5.090;2023-02-28T12:12:47;2.28;;;1.20;;
22939;SDS011;11636;52.086;5.090;2023-02-28T12:26:53;2.45;;;1.25;;
22939;SDS011;11636;52.086;5.090;2023-02-28T12:29:30;2.83;;;1.50;;
22939;SDS011;11636;52.086;5.090;2023-02-28T12:32:07;2.22;;;1.10;;
22939;SDS011;11636;52.086;5.090;2023-02-28T12:34:47;2.80;;;1.02;;
22939;SDS011;11636;52.086;5.090;2023-02-28T12:37:34;2.42;;;1.30;;
22939;SDS011;11636;52.086;5.090;2023-02-28T12:40:18;2.45;;;1.23;;
22939;SDS011;11636;52.086;5.090;2023-02-28T12:43:02;2.50;;;1.10;;
22939;SDS011;11636;52.086;5.090;2023-02-28T12:51:10;3.10;;;1.45;;
22939;SDS011;11636;52.086;5.090;2023-02-28T13:10:53;2.30;;;1.10;;
22939;SDS011;11636;52.086;5.090;2023-02-28T13:13:30;2.50;;;1.20;;
22939;SDS011;11636;52.086;5.090;2023-02-28T13:16:05;2.78;;;1.10;;
22939;SDS011;11636;52.086;5.090;2023-02-28T13:21:26;2.25;;;0.95;;
22939;SDS011;11636;52.086;5.090;2023-02-28T13:23:57;2.90;;;1.23;;
22939;SDS011;11636;52.086;5.090;2023-02-28T13:39:59;2.97;;;1.02;;
22939;SDS011;11636;52.086;5.090;2023-02-28T13:45:24;3.22;;;1.25;;
22939;SDS011;11636;52.086;5.090;2023-02-28T13:47:59;2.63;;;1.00;;
22939;SDS011;11636;52.086;5.090;2023-02-28T13:50:38;3.92;;;2.20;;
22939;SDS011;11636;52.086;5.090;2023-02-28T14:01:35;3.53;;;1.65;;
22939;SDS011;11636;52.086;5.090;2023-02-28T14:07:25;7.15;;;1.98;;
22939;SDS011;11636;52.086;5.090;2023-02-28T14:10:04;3.70;;;1.25;;
22939;SDS011;11636;52.086;5.090;2023-02-28T14:15:47;3.55;;;1.70;;
22939;SDS011;11636;52.086;5.090;2023-02-28T14:32:47;3.05;;;1.60;;
22939;SDS011;11636;52.086;5.090;2023-02-28T14:38:34;2.53;;;0.85;;
22939;SDS011;11636;52.086;5.090;2023-02-28T14:41:18;2.10;;;0.98;;
22939;SDS011;11636;52.086;5.090;2023-02-28T14:43:55;2.90;;;1.50;;
22939;SDS011;11636;52.086;5.090;2023-02-28T14:49:05;4.95;;;2.03;;
22939;SDS011;11636;52.086;5.090;2023-02-28T14:51:43;3.58;;;1.80;;
22939;SDS011;11636;52.086;5.090;2023-02-28T14:54:13;3.85;;;2.00;;
22939;SDS011;11636;52.086;5.090;2023-02-28T14:56:42;2.75;;;1.30;;
22939;SDS011;11636;52.086;5.090;2023-02-28T14:59:28;3.00;;;1.70;;
22939;SDS011;11636;52.086;5.090;2023-02-28T15:02:20;3.35;;;1.70;;
22939;SDS011;11636;52.086;5.090;2023-02-28T15:04:59;3.17;;;1.42;;
22939;SDS011;11636;52.086;5.090;2023-02-28T15:08:14;3.50;;;1.70;;
22939;SDS011;11636;52.086;5.090;2023-02-28T15:16:32;4.03;;;1.65;;
22939;SDS011;11636;52.086;5.090;2023-02-28T15:22:02;3.28;;;1.65;;
22939;SDS011;11636;52.086;5.090;2023-02-28T15:27:16;3.30;;;1.58;;
22939;SDS011;11636;52.086;5.090;2023-02-28T15:29:51;2.38;;;1.30;;
22939;SDS011;11636;52.086;5.090;2023-02-28T15:32:30;3.47;;;1.63;;
22939;SDS011;11636;52.086;5.090;2023-02-28T15:40:32;2.60;;;1.67;;
22939;SDS011;11636;52.086;5.090;2023-02-28T15:43:07;3.22;;;1.70;;
22939;SDS011;11636;52.086;5.090;2023-02-28T15:46:03;3.33;;;1.75;;
22939;SDS011;11636;52.086;5.090;2023-02-28T15:48:44;2.80;;;1.55;;
22939;SDS011;11636;52.086;5.090;2023-02-28T15:54:06;3.28;;;1.80;;
22939;SDS011;11636;52.086;5.090;2023-02-28T15:56:45;3.58;;;2.00;;
22939;SDS011;11636;52.086;5.090;2023-02-28T15:59:34;3.38;;;1.80;;
22939;SDS011;11636;52.086;5.090;2023-02-28T16:07:41;3.00;;;1.75;;
22939;SDS011;11636;52.086;5.090;2023-02-28T16:10:10;3.72;;;1.40;;
22939;SDS011;11636;52.086;5.090;2023-02-28T16:12:40;2.47;;;1.20;;
22939;SDS011;11636;52.086;5.090;2023-02-28T16:17:53;3.05;;;1.60;;
22939;SDS011;11636;52.086;5.090;2023-02-28T16:20:29;3.95;;;1.60;;
22939;SDS011;11636;52.086;5.090;2023-02-28T16:22:57;2.80;;;1.60;;
22939;SDS011;11636;52.086;5.090;2023-02-28T16:25:34;3.03;;;1.40;;
22939;SDS011;11636;52.086;5.090;2023-02-28T16:28:02;2.70;;;1.30;;
22939;SDS011;11636;52.086;5.090;2023-02-28T16:30:30;3.63;;;1.63;;
22939;SDS011;11636;52.086;5.090;2023-02-28T16:33:08;4.10;;;2.00;;
22939;SDS011;11636;52.086;5.090;2023-02-28T16:35:42;2.97;;;1.52;;
22939;SDS011;11636;52.086;5.090;2023-02-28T16:38:15;3.60;;;1.52;;
22939;SDS011;11636;52.086;5.090;2023-02-28T16:40:42;3.13;;;1.80;;
22939;SDS011;11636;52.086;5.090;2023-02-28T16:43:14;3.00;;;1.60;;
22939;SDS011;11636;52.086;5.090;2023-02-28T16:45:56;2.55;;;1.40;;
22939;SDS011;11636;52.086;5.090;2023-02-28T16:48:26;2.40;;;1.42;;
22939;SDS011;11636;52.086;5.090;2023-02-28T16:50:59;3.25;;;1.55;;
22939;SDS011;11636;52.086;5.090;2023-02-28T16:53:33;4.03;;;1.90;;
22939;SDS011;11636;52.086;5.090;2023-02-28T16:56:00;2.85;;;1.63;;
22939;SDS011;11636;52.086;5.090;2023-02-28T16:58:34;3.33;;;1.67;;
22939;SDS011;11636;52.086;5.090;2023-02-28T17:01:02;3.60;;;1.90;;
22939;SDS011;11636;52.086;5.090;2023-02-28T17:03:36;3.15;;;1.63;;
22939;SDS011;11636;52.086;5.090;2023-02-28T17:06:17;3.45;;;1.65;;
22939;SDS011;11636;52.086;5.090;2023-02-28T17:08:50;3.25;;;1.80;;
22939;SDS011;11636;52.086;5.090;2023-02-28T17:11:25;4.68;;;2.42;;
22939;SDS011;11636;52.086;5.090;2023-02-28T17:13:58;4.45;;;2.22;;
22939;SDS011;11636;52.086;5.090;2023-02-28T17:19:03;4.07;;;2.20;;
22939;SDS011;11636;52.086;5.090;2023-02-28T17:21:37;3.67;;;2.35;;
22939;SDS011;11636;52.086;5.090;2023-02-28T17:24:11;6.85;;;3.53;;
22939;SDS011;11636;52.086;5.090;2023-02-28T17:26:44;6.95;;;3.10;;
22939;SDS011;11636;52.086;5.090;2023-02-28T17:29:18;5.82;;;2.92;;
22939;SDS011;11636;52.086;5.090;2023-02-28T17:31:53;4.85;;;2.45;;
22939;SDS011;11636;52.086;5.090;2023-02-28T17:34:42;4.30;;;2.33;;
22939;SDS011;11636;52.086;5.090;2023-02-28T17:37:12;4.70;;;2.72;;
22939;SDS011;11636;52.086;5.090;2023-02-28T17:39:45;4.60;;;2.30;;
22939;SDS011;11636;52.086;5.090;2023-02-28T17:42:12;4.68;;;2.50;;
22939;SDS011;11636;52.086;5.090;2023-02-28T17:44:39;4.15;;;2.45;;
22939;SDS011;11636;52.086;5.090;2023-02-28T17:47:14;4.32;;;2.20;;
22939;SDS011;11636;52.086;5.090;2023-02-28T17:49:49;3.70;;;2.20;;
22939;SDS011;11636;52.086;5.090;2023-02-28T17:52:19;3.65;;;2.20;;
22939;SDS011;11636;52.086;5.090;2023-02-28T17:54:48;3.42;;;1.92;;
22939;SDS011;11636;52.086;5.090;2023-02-28T17:57:21;3.88;;;2.10;;
22939;SDS011;11636;52.086;5.090;2023-02-28T17:59:54;6.45;;;2.92;;
22939;SDS011;11636;52.086;5.090;2023-02-28T18:02:32;4.32;;;2.42;;
22939;SDS011;11636;52.086;5.090;2023-02-28T18:04:59;4.85;;;2.67;;
22939;SDS011;11636;52.086;5.090;2023-02-28T18:07:32;5.72;;;2.58;;
22939;SDS011;11636;52.086;5.090;2023-02-28T18:10:07;6.30;;;3.30;;
22939;SDS011;11636;52.086;5.090;2023-02-28T18:12:42;4.57;;;2.70;;
22939;SDS011;11636;52.086;5.090;2023-02-28T18:15:16;5.45;;;3.40;;
22939;SDS011;11636;52.086;5.090;2023-02-28T18:17:53;7.53;;;3.10;;
22939;SDS011;11636;52.086;5.090;2023-02-28T18:20:19;5.07;;;2.80;;
22939;SDS011;11636;52.086;5.090;2023-02-28T18:22:47;5.55;;;3.33;;
22939;SDS011;11636;52.086;5.090;2023-02-28T18:25:20;5.13;;;3.25;;
22939;SDS011;11636;52.086;5.090;2023-02-28T18:27:48;4.03;;;2.53;;
22939;SDS011;11636;52.086;5.090;2023-02-28T18:30:32;3.88;;;2.53;;
22939;SDS011;11636;52.086;5.090;2023-02-28T18:33:02;5.38;;;2.90;;
22939;SDS011;11636;52.086;5.090;2023-02-28T18:35:36;4.50;;;2.70;;
22939;SDS011;11636;52.086;5.090;2023-02-28T18:38:06;4.90;;;2.75;;
22939;SDS011;11636;52.086;5.090;2023-02-28T18:40:42;5.00;;;3.15;;
22939;SDS011;11636;52.086;5.090;2023-02-28T18:43:16;3.97;;;2.55;;
22939;SDS011;11636;52.086;5.090;2023-02-28T18:45:50;5.97;;;3.00;;
22939;SDS011;11636;52.086;5.090;2023-02-28T18:48:17;5.72;;;3.03;;
22939;SDS011;11636;52.086;5.090;2023-02-28T18:50:52;6.03;;;3.08;;
22939;SDS011;11636;52.086;5.090;2023-02-28T18:53:18;4.95;;;2.83;;